sensor_id;sensor_type;location;lat;lon;timestamp;pressure;altitude;pressure_sealevel;temperature;humidity
13476;BME280;6810;63.824;20.288;2023-02-03T00:02:06;101614.72;;;-8.67;92.74
13476;BME280;6810;63.824;20.288;2023-02-03T00:04:53;101539.91;;;-9.17;92.55
13476;BME280;6810;63.824;20.288;2023-02-03T00:07:40;101621.38;;;-8.73;92.58
13476;BME280;6810;63.824;20.288;2023-02-03T00:10:27;101629.88;;;-8.77;92.88
13476;BME280;6810;63.824;20.288;2023-02-03T00:13:14;101606.13;;;-8.92;92.79
13476;BME280;6810;63.824;20.288;2023-02-03T00:16:01;101623.56;;;-8.85;92.89
13476;BME280;6810;63.824;20.288;2023-02-03T00:18:48;101625.16;;;-8.89;92.60
13476;BME280;6810;63.824;20.288;2023-02-03T00:21:35;101619.72;;;-8.96;92.60
13476;BME280;6810;63.824;20.288;2023-02-03T00:24:22;101629.19;;;-8.97;92.69
13476;BME280;6810;63.824;20.288;2023-02-03T00:27:09;101637.69;;;-8.99;92.37
13476;BME280;6810;63.824;20.288;2023-02-03T00:29:57;101634.06;;;-9.05;92.25
13476;BME280;6810;63.824;20.288;2023-02-03T00:32:44;101636.50;;;-9.09;92.62
13476;BME280;6810;63.824;20.288;2023-02-03T00:35:31;101634.66;;;-9.13;92.60
13476;BME280;6810;63.824;20.288;2023-02-03T00:38:18;101625.00;;;-9.19;92.68
13476;BME280;6810;63.824;20.288;2023-02-03T00:41:06;101639.59;;;-9.19;91.79
13476;BME280;6810;63.824;20.288;2023-02-03T00:43:53;101631.75;;;-9.22;92.34
13476;BME280;6810;63.824;20.288;2023-02-03T00:46:40;101623.84;;;-9.27;91.72
13476;BME280;6810;63.824;20.288;2023-02-03T00:49:28;101617.69;;;-9.30;91.88
13476;BME280;6810;63.824;20.288;2023-02-03T00:52:15;101627.84;;;-9.35;91.64
13476;BME280;6810;63.824;20.288;2023-02-03T00:55:03;101631.22;;;-9.37;92.58
13476;BME280;6810;63.824;20.288;2023-02-03T00:57:51;101623.19;;;-9.45;92.51
13476;BME280;6810;63.824;20.288;2023-02-03T01:00:18;101628.34;;;-9.45;92.26
13476;BME280;6810;63.824;20.288;2023-02-03T01:02:46;101628.31;;;-9.46;91.61
13476;BME280;6810;63.824;20.288;2023-02-03T01:05:13;101631.63;;;-9.49;92.07
13476;BME280;6810;63.824;20.288;2023-02-03T01:07:41;101622.97;;;-9.51;91.85
13476;BME280;6810;63.824;20.288;2023-02-03T01:10:08;101636.63;;;-9.53;92.25
13476;BME280;6810;63.824;20.288;2023-02-03T01:12:35;101635.66;;;-9.57;92.15
13476;BME280;6810;63.824;20.288;2023-02-03T01:15:02;101635.59;;;-9.58;91.49
13476;BME280;6810;63.824;20.288;2023-02-03T01:17:29;101634.66;;;-9.60;91.85
13476;BME280;6810;63.824;20.288;2023-02-03T01:19:56;101629.38;;;-9.63;91.45
13476;BME280;6810;63.824;20.288;2023-02-03T01:22:24;101542.34;;;-10.16;91.79
13476;BME280;6810;63.824;20.288;2023-02-03T01:24:50;101562.53;;;-10.04;91.56
13476;BME280;6810;63.824;20.288;2023-02-03T01:27:18;101625.63;;;-9.71;92.07
13476;BME280;6810;63.824;20.288;2023-02-03T01:29:45;101621.19;;;-9.75;91.62
13476;BME280;6810;63.824;20.288;2023-02-03T01:32:12;101613.97;;;-9.84;92.13
13476;BME280;6810;63.824;20.288;2023-02-03T01:34:39;101617.50;;;-9.82;92.00
13476;BME280;6810;63.824;20.288;2023-02-03T01:37:06;101609.50;;;-9.89;91.88
13476;BME280;6810;63.824;20.288;2023-02-03T01:39:33;101617.38;;;-9.85;91.40
13476;BME280;6810;63.824;20.288;2023-02-03T01:42:00;101618.16;;;-9.87;92.02
13476;BME280;6810;63.824;20.288;2023-02-03T01:44:47;101618.97;;;-9.88;92.12
13476;BME280;6810;63.824;20.288;2023-02-03T01:47:27;101621.44;;;-9.91;91.45
13476;BME280;6810;63.824;20.288;2023-02-03T01:50:16;101618.69;;;-9.96;91.99
13476;BME280;6810;63.824;20.288;2023-02-03T01:52:48;101571.91;;;-10.28;91.53
13476;BME280;6810;63.824;20.288;2023-02-03T01:55:20;101631.50;;;-9.97;91.81
13476;BME280;6810;63.824;20.288;2023-02-03T01:57:58;101636.59;;;-9.99;91.95
13476;BME280;6810;63.824;20.288;2023-02-03T02:00:29;101558.53;;;-10.42;91.33
13476;BME280;6810;63.824;20.288;2023-02-03T02:02:57;101635.53;;;-10.04;91.20
13476;BME280;6810;63.824;20.288;2023-02-03T02:05:32;101639.84;;;-10.04;91.49
13476;BME280;6810;63.824;20.288;2023-02-03T02:08:02;101641.38;;;-10.09;91.24
13476;BME280;6810;63.824;20.288;2023-02-03T02:10:30;101625.56;;;-10.18;91.12
13476;BME280;6810;63.824;20.288;2023-02-03T02:12:59;101647.38;;;-10.10;91.13
13476;BME280;6810;63.824;20.288;2023-02-03T02:16:05;101637.81;;;-10.13;91.58
13476;BME280;6810;63.824;20.288;2023-02-03T02:18:39;101621.94;;;-10.23;91.36
13476;BME280;6810;63.824;20.288;2023-02-03T02:38:51;101640.44;;;-10.33;91.44
13476;BME280;6810;63.824;20.288;2023-02-03T02:41:28;101646.31;;;-10.36;91.06
13476;BME280;6810;63.824;20.288;2023-02-03T02:44:09;101648.84;;;-10.37;91.44
13476;BME280;6810;63.824;20.288;2023-02-03T02:46:43;101647.88;;;-10.41;90.74
13476;BME280;6810;63.824;20.288;2023-02-03T02:49:18;101659.78;;;-10.43;90.91
13476;BME280;6810;63.824;20.288;2023-02-03T02:51:48;101659.59;;;-10.47;90.62
13476;BME280;6810;63.824;20.288;2023-02-03T02:54:21;101658.72;;;-10.48;91.09
13476;BME280;6810;63.824;20.288;2023-02-03T02:56:53;101649.19;;;-10.50;90.39
13476;BME280;6810;63.824;20.288;2023-02-03T02:59:22;101653.38;;;-10.52;90.65
13476;BME280;6810;63.824;20.288;2023-02-03T03:01:50;101665.41;;;-10.53;90.41
13476;BME280;6810;63.824;20.288;2023-02-03T03:04:24;101651.50;;;-10.56;91.37
13476;BME280;6810;63.824;20.288;2023-02-03T03:07:15;101650.56;;;-10.58;90.39
13476;BME280;6810;63.824;20.288;2023-02-03T03:09:46;101653.00;;;-10.61;90.69
13476;BME280;6810;63.824;20.288;2023-02-03T03:14:44;101659.66;;;-10.66;90.20
13476;BME280;6810;63.824;20.288;2023-02-03T03:17:17;101663.88;;;-10.68;90.16
13476;BME280;6810;63.824;20.288;2023-02-03T03:19:50;101664.63;;;-10.71;90.80
13476;BME280;6810;63.824;20.288;2023-02-03T03:22:20;101657.41;;;-10.79;90.77
13476;BME280;6810;63.824;20.288;2023-02-03T03:24:54;101659.28;;;-10.75;90.26
13476;BME280;6810;63.824;20.288;2023-02-03T03:27:29;101659.97;;;-10.79;90.26
13476;BME280;6810;63.824;20.288;2023-02-03T03:30:05;101656.44;;;-10.81;90.39
13476;BME280;6810;63.824;20.288;2023-02-03T03:32:34;101649.50;;;-10.84;90.79
13476;BME280;6810;63.824;20.288;2023-02-03T03:35:02;101646.78;;;-10.87;90.99
13476;BME280;6810;63.824;20.288;2023-02-03T03:40:56;101644.03;;;-10.92;90.00
13476;BME280;6810;63.824;20.288;2023-02-03T03:43:30;101636.19;;;-10.95;90.17
13476;BME280;6810;63.824;20.288;2023-02-03T03:48:30;101634.28;;;-10.99;90.03
13476;BME280;6810;63.824;20.288;2023-02-03T03:51:03;101638.19;;;-11.08;90.57
13476;BME280;6810;63.824;20.288;2023-02-03T03:53:32;101640.94;;;-11.04;90.32
13476;BME280;6810;63.824;20.288;2023-02-03T03:56:05;101644.31;;;-11.05;90.19
13476;BME280;6810;63.824;20.288;2023-02-03T03:58:35;101643.38;;;-11.07;90.54
13476;BME280;6810;63.824;20.288;2023-02-03T04:01:05;101645.00;;;-11.09;89.89
13476;BME280;6810;63.824;20.288;2023-02-03T04:03:44;101648.34;;;-11.11;90.69
13476;BME280;6810;63.824;20.288;2023-02-03T04:06:12;101652.53;;;-11.13;90.05
13476;BME280;6810;63.824;20.288;2023-02-03T04:08:39;101654.13;;;-11.15;90.04
13476;BME280;6810;63.824;20.288;2023-02-03T04:11:07;101651.50;;;-11.17;90.46
13476;BME280;6810;63.824;20.288;2023-02-03T04:13:34;101653.16;;;-11.19;89.69
13476;BME280;6810;63.824;20.288;2023-02-03T04:16:01;101648.72;;;-11.21;90.02
13476;BME280;6810;63.824;20.288;2023-02-03T04:18:28;101597.41;;;-11.58;90.46
13476;BME280;6810;63.824;20.288;2023-02-03T04:20:55;101597.41;;;-11.58;89.88
13476;BME280;6810;63.824;20.288;2023-02-03T04:23:22;101643.00;;;-11.35;90.52
13476;BME280;6810;63.824;20.288;2023-02-03T04:25:49;101663.69;;;-11.32;89.57
13476;BME280;6810;63.824;20.288;2023-02-03T04:28:17;101655.72;;;-11.38;90.04
13476;BME280;6810;63.824;20.288;2023-02-03T04:30:44;101665.19;;;-11.37;89.42
13476;BME280;6810;63.824;20.288;2023-02-03T04:33:11;101665.13;;;-11.38;90.08
13476;BME280;6810;63.824;20.288;2023-02-03T04:35:38;101655.47;;;-11.44;90.30
13476;BME280;6810;63.824;20.288;2023-02-03T04:38:05;101665.06;;;-11.40;90.31
13476;BME280;6810;63.824;20.288;2023-02-03T04:40:32;101671.72;;;-11.45;90.31
13476;BME280;6810;63.824;20.288;2023-02-03T04:43:07;101663.16;;;-11.44;90.07
13476;BME280;6810;63.824;20.288;2023-02-03T04:45:34;101664.78;;;-11.46;90.28
13476;BME280;6810;63.824;20.288;2023-02-03T04:48:01;101669.78;;;-11.49;89.78
13476;BME280;6810;63.824;20.288;2023-02-03T04:50:30;101668.03;;;-11.50;90.21
13476;BME280;6810;63.824;20.288;2023-02-03T04:52:57;101671.44;;;-11.51;90.26
13476;BME280;6810;63.824;20.288;2023-02-03T04:55:27;101666.00;;;-11.57;90.21
13476;BME280;6810;63.824;20.288;2023-02-03T04:57:58;101678.06;;;-11.56;89.58
13476;BME280;6810;63.824;20.288;2023-02-03T05:00:27;101681.34;;;-11.58;90.11
13476;BME280;6810;63.824;20.288;2023-02-03T05:02:54;101684.66;;;-11.61;89.68
13476;BME280;6810;63.824;20.288;2023-02-03T05:05:21;101681.09;;;-11.64;90.04
13476;BME280;6810;63.824;20.288;2023-02-03T05:07:48;101684.44;;;-11.67;90.02
13476;BME280;6810;63.824;20.288;2023-02-03T05:10:15;101649.91;;;-11.91;89.36
13476;BME280;6810;63.824;20.288;2023-02-03T05:12:42;101687.75;;;-11.69;89.21
13476;BME280;6810;63.824;20.288;2023-02-03T05:15:09;101584.81;;;-12.28;89.99
13476;BME280;6810;63.824;20.288;2023-02-03T05:17:36;101691.84;;;-11.73;89.92
13476;BME280;6810;63.824;20.288;2023-02-03T05:20:06;101688.31;;;-11.75;89.00
13476;BME280;6810;63.824;20.288;2023-02-03T05:22:33;101676.97;;;-11.80;89.86
13476;BME280;6810;63.824;20.288;2023-02-03T05:25:02;101687.34;;;-11.78;89.95
13476;BME280;6810;63.824;20.288;2023-02-03T05:27:29;101690.63;;;-11.81;88.97
13476;BME280;6810;63.824;20.288;2023-02-03T05:29:56;101683.66;;;-11.83;88.91
13476;BME280;6810;63.824;20.288;2023-02-03T05:32:23;101689.56;;;-11.86;89.69
13476;BME280;6810;63.824;20.288;2023-02-03T05:34:51;101689.38;;;-11.89;89.78
13476;BME280;6810;63.824;20.288;2023-02-03T05:37:18;101684.16;;;-11.90;88.82
13476;BME280;6810;63.824;20.288;2023-02-03T05:39:45;101680.53;;;-11.95;88.88
13476;BME280;6810;63.824;20.288;2023-02-03T05:42:12;101683.09;;;-11.95;88.83
13476;BME280;6810;63.824;20.288;2023-02-03T05:44:39;101683.03;;;-11.97;88.85
13476;BME280;6810;63.824;20.288;2023-02-03T05:47:06;101680.31;;;-12.00;88.84
13476;BME280;6810;63.824;20.288;2023-02-03T05:49:53;101676.78;;;-12.02;89.28
13476;BME280;6810;63.824;20.288;2023-02-03T05:52:41;101682.66;;;-12.04;89.48
13476;BME280;6810;63.824;20.288;2023-02-03T05:55:29;101673.56;;;-12.15;88.82
13476;BME280;6810;63.824;20.288;2023-02-03T05:58:16;101688.31;;;-12.11;89.50
13476;BME280;6810;63.824;20.288;2023-02-03T06:01:03;101695.00;;;-12.15;89.08
13476;BME280;6810;63.824;20.288;2023-02-03T06:03:50;101697.59;;;-12.15;89.32
13476;BME280;6810;63.824;20.288;2023-02-03T06:06:38;101701.69;;;-12.18;89.09
13476;BME280;6810;63.824;20.288;2023-02-03T06:09:25;101705.91;;;-12.19;89.16
13476;BME280;6810;63.824;20.288;2023-02-03T06:12:12;101705.78;;;-12.22;88.84
13476;BME280;6810;63.824;20.288;2023-02-03T06:14:59;101700.34;;;-12.28;88.63
13476;BME280;6810;63.824;20.288;2023-02-03T06:17:47;101675.69;;;-12.42;88.67
13476;BME280;6810;63.824;20.288;2023-02-03T06:20:34;101700.34;;;-12.28;88.81
13476;BME280;6810;63.824;20.288;2023-02-03T06:23:21;101705.34;;;-12.31;88.97
13476;BME280;6810;63.824;20.288;2023-02-03T06:26:08;101705.34;;;-12.31;88.66
13476;BME280;6810;63.824;20.288;2023-02-03T06:28:55;101706.94;;;-12.33;89.06
13476;BME280;6810;63.824;20.288;2023-02-03T06:31:42;101702.47;;;-12.37;89.03
13476;BME280;6810;63.824;20.288;2023-02-03T06:34:29;101711.16;;;-12.35;88.37
13476;BME280;6810;63.824;20.288;2023-02-03T06:37:16;101711.72;;;-12.40;88.47
13476;BME280;6810;63.824;20.288;2023-02-03T06:40:04;101725.50;;;-12.38;88.71
13476;BME280;6810;63.824;20.288;2023-02-03T06:42:52;101737.31;;;-12.42;88.92
13476;BME280;6810;63.824;20.288;2023-02-03T06:45:39;101733.88;;;-12.42;89.25
13476;BME280;6810;63.824;20.288;2023-02-03T06:48:26;101730.34;;;-12.44;88.58
13476;BME280;6810;63.824;20.288;2023-02-03T06:51:13;101731.94;;;-12.46;88.55
13476;BME280;6810;63.824;20.288;2023-02-03T06:54:00;101740.38;;;-12.49;88.41
13476;BME280;6810;63.824;20.288;2023-02-03T06:56:47;101734.28;;;-12.51;88.31
13476;BME280;6810;63.824;20.288;2023-02-03T06:59:35;101738.44;;;-12.53;88.62
13476;BME280;6810;63.824;20.288;2023-02-03T07:02:22;101753.00;;;-12.53;88.83
13476;BME280;6810;63.824;20.288;2023-02-03T07:05:09;101740.72;;;-12.59;88.37
13476;BME280;6810;63.824;20.288;2023-02-03T07:07:57;101755.41;;;-12.56;88.95
13476;BME280;6810;63.824;20.288;2023-02-03T07:10:43;101707.59;;;-12.88;88.73
13476;BME280;6810;63.824;20.288;2023-02-03T07:13:30;101742.81;;;-12.68;88.63
13476;BME280;6810;63.824;20.288;2023-02-03T07:16:17;101764.56;;;-12.61;88.32
13476;BME280;6810;63.824;20.288;2023-02-03T07:19:06;101772.00;;;-12.66;88.46
13476;BME280;6810;63.824;20.288;2023-02-03T07:21:53;101780.59;;;-12.65;88.19
13476;BME280;6810;63.824;20.288;2023-02-03T07:24:40;101781.06;;;-12.73;88.42
13476;BME280;6810;63.824;20.288;2023-02-03T07:27:27;101739.41;;;-13.02;88.32
13476;BME280;6810;63.824;20.288;2023-02-03T07:30:14;101784.69;;;-12.69;88.29
13476;BME280;6810;63.824;20.288;2023-02-03T07:33:01;101794.88;;;-12.70;88.09
13476;BME280;6810;63.824;20.288;2023-02-03T07:35:53;101802.50;;;-12.72;88.45
13476;BME280;6810;63.824;20.288;2023-02-03T07:38:40;101799.03;;;-12.73;88.58
13476;BME280;6810;63.824;20.288;2023-02-03T07:41:27;101759.03;;;-13.03;88.41
13476;BME280;6810;63.824;20.288;2023-02-03T07:44:15;101812.53;;;-12.77;88.57
13476;BME280;6810;63.824;20.288;2023-02-03T07:46:42;101805.63;;;-12.77;88.61
13476;BME280;6810;63.824;20.288;2023-02-03T07:49:11;101744.59;;;-13.17;88.35
13476;BME280;6810;63.824;20.288;2023-02-03T07:51:38;101787.75;;;-12.92;88.52
13476;BME280;6810;63.824;20.288;2023-02-03T07:54:05;101817.56;;;-12.78;88.50
13476;BME280;6810;63.824;20.288;2023-02-03T07:56:32;101823.50;;;-12.79;88.56
13476;BME280;6810;63.824;20.288;2023-02-03T07:58:59;101819.25;;;-12.79;88.68
13476;BME280;6810;63.824;20.288;2023-02-03T08:01:27;101739.97;;;-13.24;88.52
13476;BME280;6810;63.824;20.288;2023-02-03T08:03:54;101824.31;;;-12.80;88.14
13476;BME280;6810;63.824;20.288;2023-02-03T08:06:21;101826.88;;;-12.80;88.70
13476;BME280;6810;63.824;20.288;2023-02-03T08:08:48;101824.06;;;-12.85;88.09
13476;BME280;6810;63.824;20.288;2023-02-03T08:11:35;101827.69;;;-12.81;88.29
13476;BME280;6810;63.824;20.288;2023-02-03T08:14:22;101802.81;;;-12.98;88.67
13476;BME280;6810;63.824;20.288;2023-02-03T08:17:09;101836.19;;;-12.82;88.01
13476;BME280;6810;63.824;20.288;2023-02-03T08:19:56;101841.31;;;-12.82;88.01
13476;BME280;6810;63.824;20.288;2023-02-03T08:22:43;101791.97;;;-13.10;88.00
13476;BME280;6810;63.824;20.288;2023-02-03T08:25:30;101838.66;;;-12.84;88.08
13476;BME280;6810;63.824;20.288;2023-02-03T08:28:17;101852.34;;;-12.83;87.93
13476;BME280;6810;63.824;20.288;2023-02-03T08:31:00;101841.13;;;-12.85;88.63
13476;BME280;6810;63.824;20.288;2023-02-03T08:33:28;101841.13;;;-12.85;87.82
13476;BME280;6810;63.824;20.288;2023-02-03T08:35:55;101848.03;;;-12.84;88.35
13476;BME280;6810;63.824;20.288;2023-02-03T08:38:22;101850.59;;;-12.84;88.06
13476;BME280;6810;63.824;20.288;2023-02-03T08:40:49;101811.97;;;-13.03;88.43
13476;BME280;6810;63.824;20.288;2023-02-03T08:43:16;101855.81;;;-12.83;88.05
13476;BME280;6810;63.824;20.288;2023-02-03T08:46:05;101797.53;;;-13.17;88.24
13476;BME280;6810;63.824;20.288;2023-02-03T08:48:53;101858.38;;;-12.83;88.54
13476;BME280;6810;63.824;20.288;2023-02-03T08:51:40;101835.94;;;-13.03;88.34
13476;BME280;6810;63.824;20.288;2023-02-03T08:54:27;101866.00;;;-12.84;87.88
13476;BME280;6810;63.824;20.288;2023-02-03T08:56:54;101872.19;;;-12.81;88.38
13476;BME280;6810;63.824;20.288;2023-02-03T08:59:21;101865.34;;;-12.80;87.95
13476;BME280;6810;63.824;20.288;2023-02-03T09:01:49;101855.34;;;-12.92;87.72
13476;BME280;6810;63.824;20.288;2023-02-03T09:04:17;101797.06;;;-13.26;87.94
13476;BME280;6810;63.824;20.288;2023-02-03T09:06:46;101885.94;;;-12.79;87.99
13476;BME280;6810;63.824;20.288;2023-02-03T09:09:15;101876.34;;;-12.83;88.70
13476;BME280;6810;63.824;20.288;2023-02-03T09:11:42;101877.16;;;-12.84;88.17
13476;BME280;6810;63.824;20.288;2023-02-03T09:14:09;101898.84;;;-12.77;87.99
13476;BME280;6810;63.824;20.288;2023-02-03T09:16:37;101906.72;;;-12.74;88.16
13476;BME280;6810;63.824;20.288;2023-02-03T09:19:05;101823.19;;;-13.17;88.36
13476;BME280;6810;63.824;20.288;2023-02-03T09:21:32;101906.88;;;-12.71;88.50
13476;BME280;6810;63.824;20.288;2023-02-03T09:24:07;101905.19;;;-12.70;88.58
13476;BME280;6810;63.824;20.288;2023-02-03T09:26:34;101902.41;;;-12.75;88.64
13476;BME280;6810;63.824;20.288;2023-02-03T09:29:01;101914.03;;;-12.65;87.94
13476;BME280;6810;63.824;20.288;2023-02-03T09:31:28;101920.19;;;-12.62;87.97
13476;BME280;6810;63.824;20.288;2023-02-03T09:33:57;101875.44;;;-12.83;88.26
13476;BME280;6810;63.824;20.288;2023-02-03T09:36:24;101922.06;;;-12.59;88.30
13476;BME280;6810;63.824;20.288;2023-02-03T09:38:51;101912.41;;;-12.63;88.60
13476;BME280;6810;63.824;20.288;2023-02-03T09:42:08;101917.88;;;-12.57;88.09
13476;BME280;6810;63.824;20.288;2023-02-03T09:46:59;101930.31;;;-12.49;88.25
13476;BME280;6810;63.824;20.288;2023-02-03T09:49:37;101939.00;;;-12.47;88.14
13476;BME280;6810;63.824;20.288;2023-02-03T09:52:14;101941.72;;;-12.44;88.70
13476;BME280;6810;63.824;20.288;2023-02-03T09:57:39;101936.75;;;-12.41;88.37
13476;BME280;6810;63.824;20.288;2023-02-03T10:00:34;101941.31;;;-12.35;88.86
13476;BME280;6810;63.824;20.288;2023-02-03T10:03:10;101950.84;;;-12.33;88.64
13476;BME280;6810;63.824;20.288;2023-02-03T10:06:10;101945.09;;;-12.29;89.15
13476;BME280;6810;63.824;20.288;2023-02-03T10:17:40;101963.03;;;-12.13;88.97
13476;BME280;6810;63.824;20.288;2023-02-03T10:22:47;101887.56;;;-12.48;88.77
13476;BME280;6810;63.824;20.288;2023-02-03T10:25:43;101951.63;;;-12.02;88.55
13476;BME280;6810;63.824;20.288;2023-02-03T10:28:38;101953.22;;;-12.04;89.17
13476;BME280;6810;63.824;20.288;2023-02-03T10:31:15;101894.84;;;-12.40;89.38
13476;BME280;6810;63.824;20.288;2023-02-03T10:33:45;101965.91;;;-11.91;89.29
13476;BME280;6810;63.824;20.288;2023-02-03T10:38:57;101968.88;;;-11.83;88.84
13476;BME280;6810;63.824;20.288;2023-02-03T10:41:28;101966.53;;;-11.79;89.45
13476;BME280;6810;63.824;20.288;2023-02-03T10:43:57;101973.59;;;-11.75;89.49
13476;BME280;6810;63.824;20.288;2023-02-03T10:46:28;101978.09;;;-11.71;88.75
13476;BME280;6810;63.824;20.288;2023-02-03T10:48:56;101967.97;;;-11.68;89.50
13476;BME280;6810;63.824;20.288;2023-02-03T10:51:28;101959.94;;;-11.74;88.99
13476;BME280;6810;63.824;20.288;2023-02-03T10:53:59;101980.34;;;-11.59;89.73
13476;BME280;6810;63.824;20.288;2023-02-03T10:56:34;101976.09;;;-11.59;89.51
13476;BME280;6810;63.824;20.288;2023-02-03T10:59:03;101902.16;;;-11.98;89.57
13476;BME280;6810;63.824;20.288;2023-02-03T11:01:50;101986.09;;;-11.47;89.12
13476;BME280;6810;63.824;20.288;2023-02-03T11:04:37;101989.72;;;-11.44;89.24
13476;BME280;6810;63.824;20.288;2023-02-03T11:07:25;101989.03;;;-11.40;89.55
13476;BME280;6810;63.824;20.288;2023-02-03T11:10:37;101989.19;;;-11.37;89.19
13476;BME280;6810;63.824;20.288;2023-02-03T11:13:25;102000.66;;;-11.30;89.57
13476;BME280;6810;63.824;20.288;2023-02-03T11:16:17;101990.16;;;-11.35;89.32
13476;BME280;6810;63.824;20.288;2023-02-03T11:19:14;102017.44;;;-11.21;90.03
13476;BME280;6810;63.824;20.288;2023-02-03T11:22:02;102003.13;;;-11.16;89.86
13476;BME280;6810;63.824;20.288;2023-02-03T11:24:49;101999.88;;;-11.12;89.57
13476;BME280;6810;63.824;20.288;2023-02-03T11:27:36;102002.69;;;-11.07;89.42
13476;BME280;6810;63.824;20.288;2023-02-03T11:30:26;102000.19;;;-11.06;89.24
13476;BME280;6810;63.824;20.288;2023-02-03T11:33:19;102003.13;;;-10.98;90.19
13476;BME280;6810;63.824;20.288;2023-02-03T11:35:57;101947.69;;;-11.27;90.24
13476;BME280;6810;63.824;20.288;2023-02-03T11:38:33;102007.09;;;-10.87;90.02
13476;BME280;6810;63.824;20.288;2023-02-03T11:41:04;102016.78;;;-10.81;90.13
13476;BME280;6810;63.824;20.288;2023-02-03T11:43:54;102017.91;;;-10.76;90.05
13476;BME280;6810;63.824;20.288;2023-02-03T11:46:42;102019.00;;;-10.71;89.72
13476;BME280;6810;63.824;20.288;2023-02-03T11:52:48;102029.72;;;-10.62;89.88
13476;BME280;6810;63.824;20.288;2023-02-03T12:23:18;102046.84;;;-10.09;89.94
13476;BME280;6810;63.824;20.288;2023-02-03T12:34:00;102001.47;;;-10.24;90.51
13476;BME280;6810;63.824;20.288;2023-02-03T12:36:37;102022.69;;;-10.11;90.89
13476;BME280;6810;63.824;20.288;2023-02-03T12:39:11;102076.47;;;-9.80;90.61
13476;BME280;6810;63.824;20.288;2023-02-03T12:42:30;102074.16;;;-9.74;90.54
13476;BME280;6810;63.824;20.288;2023-02-03T12:45:25;102082.09;;;-9.70;90.76
13476;BME280;6810;63.824;20.288;2023-02-03T12:48:18;102080.63;;;-9.65;90.99
13476;BME280;6810;63.824;20.288;2023-02-03T12:51:13;102087.75;;;-9.59;90.92
13476;BME280;6810;63.824;20.288;2023-02-03T12:57:23;102092.50;;;-9.49;90.92
13476;BME280;6810;63.824;20.288;2023-02-03T13:00:24;102094.44;;;-9.44;90.93
13476;BME280;6810;63.824;20.288;2023-02-03T13:06:37;102092.06;;;-9.39;91.02
13476;BME280;6810;63.824;20.288;2023-02-03T13:12:35;102108.41;;;-9.20;90.42
13476;BME280;6810;63.824;20.288;2023-02-03T13:15:38;102113.09;;;-9.11;91.01
13476;BME280;6810;63.824;20.288;2023-02-03T13:18:32;102124.59;;;-9.03;90.95
13476;BME280;6810;63.824;20.288;2023-02-03T13:21:20;102116.13;;;-9.00;90.83
13476;BME280;6810;63.824;20.288;2023-02-03T13:24:09;102112.72;;;-8.99;91.10
13476;BME280;6810;63.824;20.288;2023-02-03T13:30:20;102133.16;;;-8.85;91.46
13476;BME280;6810;63.824;20.288;2023-02-03T13:51:06;102104.78;;;-9.04;91.35
13476;BME280;6810;63.824;20.288;2023-02-03T13:53:59;102150.84;;;-8.73;91.61
13476;BME280;6810;63.824;20.288;2023-02-03T13:56:59;102163.91;;;-8.70;91.27
13476;BME280;6810;63.824;20.288;2023-02-03T13:59:47;102189.50;;;-8.56;91.55
13476;BME280;6810;63.824;20.288;2023-02-03T14:02:51;102187.84;;;-8.54;91.03
13476;BME280;6810;63.824;20.288;2023-02-03T14:23:22;102229.50;;;-8.46;91.95
13476;BME280;6810;63.824;20.288;2023-02-03T14:26:17;102223.41;;;-8.48;91.29
13476;BME280;6810;63.824;20.288;2023-02-03T14:29:07;102236.41;;;-8.47;91.23
13476;BME280;6810;63.824;20.288;2023-02-03T14:34:49;102256.06;;;-8.50;91.55
13476;BME280;6810;63.824;20.288;2023-02-03T14:37:36;102266.44;;;-8.49;91.62
13476;BME280;6810;63.824;20.288;2023-02-03T14:40:58;102269.88;;;-8.50;91.27
13476;BME280;6810;63.824;20.288;2023-02-03T14:44:06;102276.72;;;-8.50;91.61
13476;BME280;6810;63.824;20.288;2023-02-03T14:53:20;102289.44;;;-8.55;91.58
13476;BME280;6810;63.824;20.288;2023-02-03T14:59:08;102304.56;;;-8.64;91.42
13476;BME280;6810;63.824;20.288;2023-02-03T15:04:50;102327.94;;;-8.61;91.62
13476;BME280;6810;63.824;20.288;2023-02-03T15:10:41;102345.88;;;-8.64;91.78
13476;BME280;6810;63.824;20.288;2023-02-03T15:13:30;102345.00;;;-8.64;91.47
13476;BME280;6810;63.824;20.288;2023-02-03T15:16:19;102327.13;;;-8.79;91.51
13476;BME280;6810;63.824;20.288;2023-02-03T15:19:15;102330.50;;;-8.80;91.71
13476;BME280;6810;63.824;20.288;2023-02-03T15:22:20;102341.94;;;-8.75;91.39
13476;BME280;6810;63.824;20.288;2023-02-03T15:25:16;102353.88;;;-8.77;90.86
13476;BME280;6810;63.824;20.288;2023-02-03T15:28:11;102339.91;;;-8.82;90.94
13476;BME280;6810;63.824;20.288;2023-02-03T15:31:11;102363.41;;;-8.76;91.20
13476;BME280;6810;63.824;20.288;2023-02-03T15:37:15;102372.72;;;-8.79;91.52
13476;BME280;6810;63.824;20.288;2023-02-03T15:43:06;102380.19;;;-8.85;91.39
13476;BME280;6810;63.824;20.288;2023-02-03T15:51:48;102404.25;;;-8.86;91.27
13476;BME280;6810;63.824;20.288;2023-02-03T15:54:40;102418.72;;;-8.90;91.31
13476;BME280;6810;63.824;20.288;2023-02-03T15:57:30;102365.66;;;-9.20;91.59
13476;BME280;6810;63.824;20.288;2023-02-03T16:00:31;102413.25;;;-8.96;91.44
13476;BME280;6810;63.824;20.288;2023-02-03T16:03:22;102421.84;;;-8.97;91.04
13476;BME280;6810;63.824;20.288;2023-02-03T16:06:32;102441.53;;;-8.99;91.37
13476;BME280;6810;63.824;20.288;2023-02-03T16:09:31;102445.72;;;-9.01;91.15
13476;BME280;6810;63.824;20.288;2023-02-03T16:12:32;102446.41;;;-9.05;91.19
13476;BME280;6810;63.824;20.288;2023-02-03T16:15:21;102454.06;;;-9.07;91.21
13476;BME280;6810;63.824;20.288;2023-02-03T16:18:15;102450.53;;;-9.09;90.88
13476;BME280;6810;63.824;20.288;2023-02-03T16:21:04;102459.88;;;-9.11;91.34
13476;BME280;6810;63.824;20.288;2023-02-03T16:23:51;102461.53;;;-9.13;91.22
13476;BME280;6810;63.824;20.288;2023-02-03T16:26:38;102461.44;;;-9.14;91.27
13476;BME280;6810;63.824;20.288;2023-02-03T16:29:28;102468.22;;;-9.16;91.41
13476;BME280;6810;63.824;20.288;2023-02-03T16:32:18;102471.56;;;-9.19;91.28